Time;durP1;ratioP1;P1;durP2;ratioP2;P2;SDS_P1;SDS_P2;PMS_P1;PMS_P2;Temp;Humidity;BMP_temperature;BMP_pressure;BME280_temperature;BME280_humidity;BME280_pressure;Samples;Min_cycle;Max_cycle;Signal;HPM_P1;HPM_P2
2022/03/13 00:01:35;;;;;;;24.13;14.55;;;;;;;;;;5062997;28;20201;-68
2022/03/13 00:04:01;;;;;;;21.20;14.50;;;;;;;;;;5062987;28;20243;-68
2022/03/13 00:06:31;;;;;;;21.85;14.40;;;;;;;;;;5062479;28;20408;-68
2022/03/13 00:08:58;;;;;;;26.27;15.05;;;;;;;;;;5063011;28;20235;-68
2022/03/13 00:11:27;;;;;;;22.52;14.45;;;;;;;;;;5062784;28;20200;-68
2022/03/13 00:13:54;;;;;;;23.30;14.80;;;;;;;;;;5062807;28;20197;-68
2022/03/13 00:16:21;;;;;;;21.83;14.27;;;;;;;;;;5062435;28;20232;-68
2022/03/13 00:18:48;;;;;;;20.55;14.25;;;;;;;;;;5062529;28;20197;-68
2022/03/13 00:21:15;;;;;;;20.13;14.40;;;;;;;;;;5062811;28;20217;-68
2022/03/13 00:23:42;;;;;;;21.00;14.30;;;;;;;;;;5062688;28;20211;-68
2022/03/13 00:26:08;;;;;;;21.85;15.48;;;;;;;;;;5062440;28;20206;-68
2022/03/13 00:28:36;;;;;;;24.75;14.68;;;;;;;;;;5062394;28;20201;-68
2022/03/13 00:31:03;;;;;;;21.80;13.85;;;;;;;;;;5062949;28;20231;-68
2022/03/13 00:33:30;;;;;;;21.08;13.32;;;;;;;;;;5062313;28;20197;-68
2022/03/13 00:35:56;;;;;;;19.70;13.02;;;;;;;;;;5062462;28;20207;-68
2022/03/13 00:38:25;;;;;;;21.02;13.32;;;;;;;;;;5062438;28;20216;-68
2022/03/13 00:40:51;;;;;;;17.52;12.05;;;;;;;;;;5062267;28;20217;-68
2022/03/13 00:43:18;;;;;;;16.58;12.05;;;;;;;;;;5062393;28;20201;-68
2022/03/13 00:45:46;;;;;;;17.63;12.07;;;;;;;;;;5062351;28;20201;-68
2022/03/13 00:48:12;;;;;;;17.25;11.45;;;;;;;;;;5061792;28;20205;-68
2022/03/13 00:50:39;;;;;;;14.90;10.80;;;;;;;;;;5062315;28;20201;-68
2022/03/13 00:53:05;;;;;;;16.02;10.50;;;;;;;;;;5062074;28;20504;-68
2022/03/13 00:55:32;;;;;;;17.00;12.10;;;;;;;;;;5061991;28;20204;-68
2022/03/13 00:57:58;;;;;;;15.88;11.40;;;;;;;;;;5061817;28;20266;-69
2022/03/13 01:00:24;;;;;;;18.13;11.02;;;;;;;;;;5061916;28;20298;-68
2022/03/13 01:02:52;;;;;;;21.00;11.85;;;;;;;;;;5061948;28;20236;-68
2022/03/13 01:05:21;;;;;;;15.35;11.68;;;;;;;;;;5061999;28;20217;-68
2022/03/13 01:07:48;;;;;;;17.73;12.40;;;;;;;;;;5064547;28;20229;-68
2022/03/13 01:10:14;;;;;;;17.90;12.05;;;;;;;;;;5066215;28;20204;-68
2022/03/13 01:12:40;;;;;;;18.65;12.73;;;;;;;;;;5066575;28;20353;-68
2022/03/13 01:15:08;;;;;;;20.67;13.52;;;;;;;;;;5065811;28;20193;-68
2022/03/13 01:17:35;;;;;;;25.02;15.70;;;;;;;;;;5066252;28;20243;-68
2022/03/13 01:20:03;;;;;;;23.88;15.40;;;;;;;;;;5066050;28;20411;-68
2022/03/13 01:22:30;;;;;;;27.65;16.17;;;;;;;;;;5066148;28;20259;-68
2022/03/13 01:24:56;;;;;;;24.90;15.57;;;;;;;;;;5066063;28;20205;-68
2022/03/13 01:27:23;;;;;;;21.20;15.10;;;;;;;;;;5065767;28;20520;-68
2022/03/13 01:29:49;;;;;;;25.42;14.68;;;;;;;;;;5065835;28;20209;-68
2022/03/13 01:32:15;;;;;;;23.20;16.10;;;;;;;;;;5065992;28;20516;-68
2022/03/13 01:34:44;;;;;;;25.02;15.45;;;;;;;;;;5065892;28;20197;-68
2022/03/13 01:37:28;;;;;;;22.48;15.63;;;;;;;;;;5065589;28;20197;-68
2022/03/13 01:39:54;;;;;;;22.48;15.82;;;;;;;;;;5065534;28;20407;-68
2022/03/13 01:42:20;;;;;;;21.23;15.80;;;;;;;;;;5065490;28;20235;-68
2022/03/13 01:44:47;;;;;;;26.90;16.50;;;;;;;;;;5065665;28;20201;-68
2022/03/13 01:47:13;;;;;;;23.70;15.55;;;;;;;;;;5065238;28;20197;-68
2022/03/13 01:49:40;;;;;;;22.80;16.45;;;;;;;;;;5065652;28;20201;-68
2022/03/13 01:52:06;;;;;;;23.50;14.95;;;;;;;;;;5065442;28;20205;-68
2022/03/13 01:54:34;;;;;;;22.90;15.23;;;;;;;;;;5065316;28;20197;-68
2022/03/13 01:57:01;;;;;;;23.25;15.27;;;;;;;;;;5064926;28;20204;-68
2022/03/13 01:59:28;;;;;;;31.45;16.80;;;;;;;;;;5065382;28;20235;-68
2022/03/13 02:01:54;;;;;;;22.95;16.58;;;;;;;;;;5065188;28;20221;-68
2022/03/13 02:04:23;;;;;;;27.05;17.63;;;;;;;;;;5065117;28;20197;-68
2022/03/13 02:06:50;;;;;;;29.20;19.05;;;;;;;;;;5064772;28;20263;-68
2022/03/13 02:09:16;;;;;;;31.10;18.63;;;;;;;;;;5064813;28;20444;-68
2022/03/13 02:11:44;;;;;;;26.25;17.23;;;;;;;;;;5064925;28;20229;-68
2022/03/13 02:14:11;;;;;;;28.40;18.67;;;;;;;;;;5065131;28;20204;-68
2022/03/13 02:16:38;;;;;;;30.88;19.90;;;;;;;;;;5065123;28;20197;-68
2022/03/13 02:19:05;;;;;;;32.25;18.20;;;;;;;;;;5065220;28;20204;-68
2022/03/13 02:21:32;;;;;;;27.38;18.60;;;;;;;;;;5064578;28;20228;-68
2022/03/13 02:24:02;;;;;;;27.58;18.45;;;;;;;;;;5064519;28;20254;-68
2022/03/13 02:26:28;;;;;;;26.13;17.33;;;;;;;;;;5064635;28;20201;-68
2022/03/13 02:28:56;;;;;;;34.97;17.48;;;;;;;;;;5064528;28;20190;-68
2022/03/13 02:31:26;;;;;;;24.63;16.33;;;;;;;;;;5065020;28;20209;-68
2022/03/13 02:33:53;;;;;;;24.80;16.70;;;;;;;;;;5064526;28;20201;-68
2022/03/13 02:36:23;;;;;;;24.33;15.30;;;;;;;;;;5064435;28;20203;-68
2022/03/13 02:38:49;;;;;;;24.80;15.07;;;;;;;;;;5064290;28;20243;-68
2022/03/13 02:41:17;;;;;;;22.88;15.27;;;;;;;;;;5064370;28;20221;-68
2022/03/13 02:43:43;;;;;;;22.58;15.13;;;;;;;;;;5064425;28;20197;-68
2022/03/13 02:46:20;;;;;;;20.42;14.65;;;;;;;;;;5063733;28;20197;-68
2022/03/13 02:48:46;;;;;;;24.42;16.08;;;;;;;;;;5064383;28;20196;-68
2022/03/13 02:51:13;;;;;;;23.52;15.52;;;;;;;;;;5064423;28;20193;-68
2022/03/13 02:53:39;;;;;;;23.60;16.58;;;;;;;;;;5064289;28;20205;-68
2022/03/13 02:56:06;;;;;;;29.98;16.73;;;;;;;;;;5063896;28;20208;-68
2022/03/13 02:58:33;;;;;;;24.17;16.85;;;;;;;;;;5064096;28;20250;-68
2022/03/13 03:01:00;;;;;;;25.52;16.58;;;;;;;;;;5063804;28;20558;-68
2022/03/13 03:03:26;;;;;;;27.10;18.42;;;;;;;;;;5064195;28;20197;-68
2022/03/13 03:05:53;;;;;;;29.48;18.20;;;;;;;;;;5064164;28;20216;-68
2022/03/13 03:08:21;;;;;;;28.83;19.33;;;;;;;;;;5063933;28;20523;-68
2022/03/13 03:10:48;;;;;;;29.65;19.35;;;;;;;;;;5063934;28;20451;-68
2022/03/13 03:13:15;;;;;;;29.90;19.13;;;;;;;;;;5063668;28;20201;-68
2022/03/13 03:15:43;;;;;;;35.25;20.35;;;;;;;;;;5064008;28;20224;-68
2022/03/13 03:18:10;;;;;;;30.27;19.52;;;;;;;;;;5063790;28;20415;-68
2022/03/13 03:20:36;;;;;;;32.60;18.67;;;;;;;;;;5063691;28;20251;-68
2022/03/13 03:23:03;;;;;;;28.25;18.10;;;;;;;;;;5064138;28;20196;-68
2022/03/13 03:25:29;;;;;;;24.55;16.92;;;;;;;;;;5063569;28;20205;-68
2022/03/13 03:27:56;;;;;;;25.83;17.55;;;;;;;;;;5063425;28;20526;-68
2022/03/13 03:30:24;;;;;;;24.33;16.63;;;;;;;;;;5062917;28;20201;-68
2022/03/13 03:32:52;;;;;;;25.70;17.52;;;;;;;;;;5063388;28;20201;-68
2022/03/13 03:35:19;;;;;;;25.75;16.40;;;;;;;;;;5063438;28;20223;-68
2022/03/13 03:37:45;;;;;;;26.48;17.52;;;;;;;;;;5063188;28;20397;-68
2022/03/13 03:40:12;;;;;;;26.25;17.13;;;;;;;;;;5063260;28;20243;-68
2022/03/13 03:42:38;;;;;;;30.27;18.35;;;;;;;;;;5063156;28;20223;-68
2022/03/13 03:45:05;;;;;;;29.55;18.40;;;;;;;;;;5063366;28;20463;-68
2022/03/13 03:47:31;;;;;;;25.92;18.63;;;;;;;;;;5063047;28;20197;-68
2022/03/13 03:49:59;;;;;;;27.17;18.02;;;;;;;;;;5063256;28;20303;-68
2022/03/13 03:52:25;;;;;;;32.88;17.60;;;;;;;;;;5063425;28;20193;-68
2022/03/13 03:54:52;;;;;;;27.02;17.88;;;;;;;;;;5063059;28;20235;-68
2022/03/13 03:57:19;;;;;;;29.83;18.55;;;;;;;;;;5062845;28;20388;-68
2022/03/13 03:59:45;;;;;;;26.30;18.27;;;;;;;;;;5063181;28;20197;-68
2022/03/13 04:02:12;;;;;;;25.30;17.80;;;;;;;;;;5062931;28;20228;-68
2022/03/13 04:04:39;;;;;;;25.60;17.40;;;;;;;;;;5062810;28;20205;-68
2022/03/13 04:07:06;;;;;;;25.02;16.38;;;;;;;;;;5062852;28;20535;-68
2022/03/13 04:09:32;;;;;;;22.00;16.52;;;;;;;;;;5062694;28;20212;-68
2022/03/13 04:11:59;;;;;;;25.98;16.75;;;;;;;;;;5062984;28;20208;-68
2022/03/13 04:14:26;;;;;;;20.55;15.10;;;;;;;;;;5062622;28;20197;-68
2022/03/13 04:16:53;;;;;;;22.70;14.48;;;;;;;;;;5062688;28;20395;-68
2022/03/13 04:19:19;;;;;;;22.33;15.45;;;;;;;;;;5062752;28;20201;-68
2022/03/13 04:21:46;;;;;;;20.52;14.75;;;;;;;;;;5062443;28;20216;-68
2022/03/13 04:24:13;;;;;;;22.83;16.20;;;;;;;;;;5062392;28;20205;-68
2022/03/13 04:26:40;;;;;;;27.88;18.30;;;;;;;;;;5062232;28;20196;-68
2022/03/13 04:29:09;;;;;;;27.38;18.25;;;;;;;;;;5062507;28;20223;-68
2022/03/13 04:31:37;;;;;;;30.55;18.48;;;;;;;;;;5062517;28;20501;-68
2022/03/13 04:34:03;;;;;;;32.53;19.55;;;;;;;;;;5062456;28;20453;-68
2022/03/13 04:36:32;;;;;;;32.60;19.67;;;;;;;;;;5062048;28;20444;-68
2022/03/13 04:38:58;;;;;;;29.38;17.83;;;;;;;;;;5062402;28;20204;-68
2022/03/13 04:41:26;;;;;;;28.13;18.90;;;;;;;;;;5061405;28;20219;-68
2022/03/13 04:43:53;;;;;;;28.70;18.70;;;;;;;;;;5062265;28;20204;-68
2022/03/13 04:46:19;;;;;;;25.17;17.27;;;;;;;;;;5062545;28;20251;-68
2022/03/13 04:48:45;;;;;;;29.60;18.83;;;;;;;;;;5062125;28;20205;-68
2022/03/13 04:51:11;;;;;;;25.88;17.45;;;;;;;;;;5061950;28;20417;-68
2022/03/13 04:53:38;;;;;;;27.35;16.73;;;;;;;;;;5062350;28;20197;-68
2022/03/13 04:56:04;;;;;;;25.95;17.27;;;;;;;;;;5062030;28;20200;-68
2022/03/13 04:58:32;;;;;;;25.10;16.38;;;;;;;;;;5062037;28;20197;-68
2022/03/13 05:00:59;;;;;;;24.55;15.75;;;;;;;;;;5062140;28;20221;-68
2022/03/13 05:03:26;;;;;;;23.30;15.38;;;;;;;;;;5062514;28;20235;-68
2022/03/13 05:05:53;;;;;;;21.33;15.07;;;;;;;;;;5061809;28;20693;-68
2022/03/13 05:08:20;;;;;;;21.58;14.60;;;;;;;;;;5061772;28;20388;-68
2022/03/13 05:10:48;;;;;;;21.83;15.45;;;;;;;;;;5062065;28;20197;-68
2022/03/13 05:13:15;;;;;;;21.48;14.55;;;;;;;;;;5062121;28;20201;-68
2022/03/13 05:15:43;;;;;;;28.60;15.98;;;;;;;;;;5061988;28;20197;-68
2022/03/13 05:18:10;;;;;;;20.05;15.10;;;;;;;;;;5061645;28;20197;-68
2022/03/13 05:20:36;;;;;;;21.23;14.90;;;;;;;;;;5061688;28;20441;-68
2022/03/13 05:23:03;;;;;;;23.30;15.45;;;;;;;;;;5061879;28;20248;-68
2022/03/13 05:25:31;;;;;;;21.98;13.98;;;;;;;;;;5061658;28;20205;-68
2022/03/13 05:27:57;;;;;;;20.60;14.57;;;;;;;;;;5061689;28;20272;-67
2022/03/13 05:30:24;;;;;;;19.98;13.73;;;;;;;;;;5061871;28;20505;-67
2022/03/13 05:32:52;;;;;;;21.85;14.57;;;;;;;;;;5061746;28;20275;-67
2022/03/13 05:35:18;;;;;;;22.27;15.48;;;;;;;;;;5061921;28;20421;-67
2022/03/13 05:37:45;;;;;;;23.35;15.27;;;;;;;;;;5061628;28;20458;-68
2022/03/13 05:40:13;;;;;;;24.17;15.48;;;;;;;;;;5061647;28;20201;-67
2022/03/13 05:42:39;;;;;;;21.83;15.52;;;;;;;;;;5061664;28;20221;-67
2022/03/13 05:45:06;;;;;;;24.70;15.77;;;;;;;;;;5061674;28;20197;-67
2022/03/13 05:47:32;;;;;;;23.98;15.90;;;;;;;;;;5061106;28;20201;-68
2022/03/13 05:50:00;;;;;;;23.70;15.55;;;;;;;;;;5061533;28;20270;-68
2022/03/13 05:52:27;;;;;;;24.63;16.27;;;;;;;;;;5061945;28;20193;-67
2022/03/13 05:54:53;;;;;;;22.10;15.80;;;;;;;;;;5065394;28;20204;-67
2022/03/13 05:57:19;;;;;;;24.33;15.50;;;;;;;;;;5065079;28;20389;-67
2022/03/13 05:59:45;;;;;;;24.33;14.85;;;;;;;;;;5065322;28;20508;-68
2022/03/13 06:02:12;;;;;;;20.90;14.75;;;;;;;;;;5064964;28;20251;-67
2022/03/13 06:04:39;;;;;;;20.70;14.00;;;;;;;;;;5065048;28;20197;-68
2022/03/13 06:07:07;;;;;;;22.13;13.77;;;;;;;;;;5065035;28;20474;-68
2022/03/13 06:09:33;;;;;;;23.38;15.23;;;;;;;;;;5065083;28;20197;-68
2022/03/13 06:12:00;;;;;;;25.55;16.70;;;;;;;;;;5065117;28;20205;-67
2022/03/13 06:14:26;;;;;;;24.58;16.67;;;;;;;;;;5064944;28;20204;-67
2022/03/13 06:16:53;;;;;;;28.17;17.45;;;;;;;;;;5065021;28;20508;-68
2022/03/13 06:19:19;;;;;;;25.95;17.92;;;;;;;;;;5065093;28;20272;-67
2022/03/13 06:21:47;;;;;;;24.25;15.60;;;;;;;;;;5064884;28;20225;-67
2022/03/13 06:24:16;;;;;;;21.67;15.73;;;;;;;;;;5064774;28;20504;-67
2022/03/13 06:26:42;;;;;;;22.17;15.30;;;;;;;;;;5064688;28;20204;-67
2022/03/13 06:29:09;;;;;;;23.63;16.50;;;;;;;;;;5064731;28;20197;-67
2022/03/13 06:31:35;;;;;;;21.83;14.50;;;;;;;;;;5064840;28;20193;-67
2022/03/13 06:34:01;;;;;;;19.55;12.90;;;;;;;;;;5064941;28;20200;-68
2022/03/13 06:36:28;;;;;;;18.77;14.13;;;;;;;;;;5064515;28;20403;-67
2022/03/13 06:38:55;;;;;;;20.88;13.93;;;;;;;;;;5064747;28;20205;-68
2022/03/13 06:41:23;;;;;;;20.65;13.82;;;;;;;;;;5064499;28;20225;-67
2022/03/13 06:43:49;;;;;;;21.58;13.93;;;;;;;;;;5064688;28;20208;-67
2022/03/13 06:46:16;;;;;;;20.85;12.90;;;;;;;;;;5064416;28;20204;-67
2022/03/13 06:48:42;;;;;;;22.80;14.70;;;;;;;;;;5064525;28;20279;-67
2022/03/13 06:51:09;;;;;;;20.48;13.95;;;;;;;;;;5064462;28;20384;-67
2022/03/13 06:53:35;;;;;;;17.88;13.35;;;;;;;;;;5064366;28;20518;-67
2022/03/13 06:56:01;;;;;;;18.65;13.63;;;;;;;;;;5064086;28;20563;-67
2022/03/13 06:58:29;;;;;;;20.83;13.13;;;;;;;;;;5064011;28;20203;-67
2022/03/13 07:00:56;;;;;;;18.42;13.55;;;;;;;;;;5064064;28;20203;-69
2022/03/13 07:03:22;;;;;;;18.83;13.73;;;;;;;;;;5063812;28;20220;-68
2022/03/13 07:05:48;;;;;;;19.70;13.18;;;;;;;;;;5063361;28;20217;-67
2022/03/13 07:08:15;;;;;;;18.02;12.65;;;;;;;;;;5063913;28;20520;-67
2022/03/13 07:10:41;;;;;;;19.77;12.90;;;;;;;;;;5063962;28;20204;-67
2022/03/13 07:13:08;;;;;;;18.17;12.57;;;;;;;;;;5064085;28;20199;-67
2022/03/13 07:15:36;;;;;;;24.42;14.10;;;;;;;;;;5064042;28;20204;-68
2022/03/13 07:18:02;;;;;;;18.55;12.35;;;;;;;;;;5063487;28;20364;-67
2022/03/13 07:20:29;;;;;;;19.42;13.48;;;;;;;;;;5063754;28;20204;-68
2022/03/13 07:22:56;;;;;;;20.80;12.98;;;;;;;;;;5063682;28;20412;-67
2022/03/13 07:25:22;;;;;;;21.50;13.65;;;;;;;;;;5063488;28;20205;-67
2022/03/13 07:27:48;;;;;;;15.40;11.75;;;;;;;;;;5063589;28;20567;-68
2022/03/13 07:30:15;;;;;;;15.63;12.25;;;;;;;;;;5063465;28;20426;-68
2022/03/13 07:32:43;;;;;;;18.75;12.50;;;;;;;;;;5063514;28;20239;-68
2022/03/13 07:35:09;;;;;;;21.50;12.50;;;;;;;;;;5063548;28;20196;-68
2022/03/13 07:37:36;;;;;;;23.55;11.85;;;;;;;;;;5063212;28;20204;-68
2022/03/13 07:40:03;;;;;;;20.90;12.63;;;;;;;;;;5063337;28;20197;-68
2022/03/13 07:42:29;;;;;;;18.40;11.93;;;;;;;;;;5063666;28;20538;-68
2022/03/13 07:44:55;;;;;;;19.85;12.35;;;;;;;;;;5063362;28;20199;-68
2022/03/13 07:47:22;;;;;;;17.13;12.80;;;;;;;;;;5063123;28;20259;-68
2022/03/13 07:49:49;;;;;;;18.58;12.68;;;;;;;;;;5063290;28;20445;-68
2022/03/13 07:52:16;;;;;;;19.35;12.43;;;;;;;;;;5063321;28;20202;-68
2022/03/13 07:54:42;;;;;;;20.85;11.63;;;;;;;;;;5063038;28;20267;-68
2022/03/13 07:57:09;;;;;;;20.92;11.85;;;;;;;;;;5062990;28;20250;-68
2022/03/13 07:59:35;;;;;;;17.42;11.25;;;;;;;;;;5063072;28;20444;-68
2022/03/13 08:02:01;;;;;;;16.52;11.57;;;;;;;;;;5062939;28;20571;-68
2022/03/13 08:04:28;;;;;;;15.52;11.18;;;;;;;;;;5062831;28;20526;-68
2022/03/13 08:06:55;;;;;;;17.48;11.27;;;;;;;;;;5062501;28;20224;-68
2022/03/13 08:09:22;;;;;;;16.13;11.48;;;;;;;;;;5062841;28;20527;-68
2022/03/13 08:11:48;;;;;;;15.55;10.82;;;;;;;;;;5062904;28;20497;-68
2022/03/13 08:14:14;;;;;;;15.55;11.18;;;;;;;;;;5062753;28;20204;-68
2022/03/13 08:16:41;;;;;;;18.50;10.68;;;;;;;;;;5062461;28;20252;-68
2022/03/13 08:19:09;;;;;;;16.33;10.18;;;;;;;;;;5062649;28;20197;-66
2022/03/13 08:21:35;;;;;;;17.00;10.63;;;;;;;;;;5062365;28;20201;-66
2022/03/13 08:24:05;;;;;;;12.43;10.15;;;;;;;;;;5062540;28;20213;-66
2022/03/13 08:26:32;;;;;;;16.58;10.10;;;;;;;;;;5062275;28;20228;-66
2022/03/13 08:28:58;;;;;;;19.90;10.93;;;;;;;;;;5062540;28;20212;-66
2022/03/13 08:31:24;;;;;;;19.33;11.88;;;;;;;;;;5062524;28;20200;-66
2022/03/13 08:33:51;;;;;;;16.15;12.32;;;;;;;;;;5062451;28;20231;-66
2022/03/13 08:36:17;;;;;;;18.73;13.68;;;;;;;;;;5062324;28;20250;-66
2022/03/13 08:38:43;;;;;;;17.85;12.68;;;;;;;;;;5062303;28;20197;-66
2022/03/13 08:41:11;;;;;;;18.13;12.50;;;;;;;;;;5062556;28;20531;-66
2022/03/13 08:43:37;;;;;;;21.90;12.85;;;;;;;;;;5062296;28;20243;-66
2022/03/13 08:46:04;;;;;;;15.05;12.50;;;;;;;;;;5062092;28;20204;-66
2022/03/13 08:48:30;;;;;;;16.58;12.43;;;;;;;;;;5062204;28;20219;-66
2022/03/13 08:50:56;;;;;;;21.67;12.93;;;;;;;;;;5062191;28;20504;-66
2022/03/13 08:53:23;;;;;;;21.00;14.23;;;;;;;;;;5062142;28;20200;-66
2022/03/13 08:55:49;;;;;;;19.25;13.10;;;;;;;;;;5062302;28;20273;-67
2022/03/13 08:58:17;;;;;;;18.90;13.40;;;;;;;;;;5062109;28;20201;-67
2022/03/13 09:00:43;;;;;;;21.45;13.85;;;;;;;;;;5062076;28;20201;-66
2022/03/13 09:03:09;;;;;;;17.45;13.40;;;;;;;;;;5061884;28;20219;-66
2022/03/13 09:05:36;;;;;;;22.73;13.43;;;;;;;;;;5061919;28;21160;-66
2022/03/13 09:08:02;;;;;;;18.15;12.73;;;;;;;;;;5061885;28;20266;-66
2022/03/13 09:10:29;;;;;;;18.77;12.50;;;;;;;;;;5062145;28;20501;-66
2022/03/13 09:12:55;;;;;;;17.92;12.43;;;;;;;;;;5062112;28;20223;-67
2022/03/13 09:15:23;;;;;;;16.80;12.35;;;;;;;;;;5061993;28;20197;-67
2022/03/13 09:17:53;;;;;;;19.13;12.25;;;;;;;;;;5061746;28;20212;-67
2022/03/13 09:20:19;;;;;;;15.82;11.25;;;;;;;;;;5062089;28;20204;-67
2022/03/13 09:22:46;;;;;;;16.90;11.75;;;;;;;;;;5061893;28;20216;-67
2022/03/13 09:25:12;;;;;;;17.58;11.50;;;;;;;;;;5061763;28;20211;-67
2022/03/13 09:27:38;;;;;;;15.48;11.40;;;;;;;;;;5062336;28;20238;-67
2022/03/13 09:30:05;;;;;;;13.73;10.18;;;;;;;;;;5065912;28;20205;-67
2022/03/13 09:32:33;;;;;;;13.55;10.80;;;;;;;;;;5065813;28;20193;-67
2022/03/13 09:34:59;;;;;;;12.80;10.07;;;;;;;;;;5065733;28;20201;-66
2022/03/13 09:37:25;;;;;;;13.90;10.75;;;;;;;;;;5065342;28;20559;-66
2022/03/13 09:39:52;;;;;;;15.55;10.02;;;;;;;;;;5065698;28;20205;-66
2022/03/13 09:42:18;;;;;;;17.63;12.50;;;;;;;;;;5065573;28;20197;-66
2022/03/13 09:44:45;;;;;;;16.95;12.68;;;;;;;;;;5065430;28;20205;-66
2022/03/13 09:47:11;;;;;;;21.65;12.63;;;;;;;;;;5065200;28;20204;-67
2022/03/13 09:49:40;;;;;;;15.98;11.65;;;;;;;;;;5065600;28;20197;-67
2022/03/13 09:52:07;;;;;;;16.55;11.90;;;;;;;;;;5065650;28;20504;-67
2022/03/13 09:54:34;;;;;;;19.60;12.65;;;;;;;;;;5065497;28;20204;-67
2022/03/13 09:57:01;;;;;;;16.67;12.65;;;;;;;;;;5065138;28;20236;-66
2022/03/13 09:59:27;;;;;;;19.85;12.35;;;;;;;;;;5065236;28;20197;-67
2022/03/13 10:01:54;;;;;;;16.58;12.18;;;;;;;;;;5065070;28;20205;-66
2022/03/13 10:04:20;;;;;;;19.42;12.45;;;;;;;;;;5065284;28;20259;-67
2022/03/13 10:07:06;;;;;;;18.05;12.63;;;;;;;;;;5065055;28;20217;-67
2022/03/13 10:09:33;;;;;;;19.00;13.13;;;;;;;;;;5065172;28;20197;-67
2022/03/13 10:12:03;;;;;;;20.73;12.90;;;;;;;;;;5064944;28;20193;-67
2022/03/13 10:14:30;;;;;;;19.70;13.18;;;;;;;;;;5064999;28;20201;-67
2022/03/13 10:16:56;;;;;;;20.70;13.40;;;;;;;;;;5064657;28;20197;-66
2022/03/13 10:19:24;;;;;;;17.60;13.65;;;;;;;;;;5065113;28;20197;-67
2022/03/13 10:22:01;;;;;;;19.60;14.00;;;;;;;;;;5064987;28;20519;-67
2022/03/13 10:24:29;;;;;;;18.90;13.70;;;;;;;;;;5064628;28;20262;-67
2022/03/13 10:27:00;;;;;;;17.95;13.35;;;;;;;;;;5064750;28;20243;-67
2022/03/13 10:29:30;;;;;;;21.05;14.55;;;;;;;;;;5064902;28;20493;-67
2022/03/13 10:31:58;;;;;;;26.15;16.80;;;;;;;;;;5064818;28;20436;-67
2022/03/13 10:34:26;;;;;;;22.10;13.93;;;;;;;;;;5064653;28;20200;-67
2022/03/13 10:36:52;;;;;;;19.50;13.85;;;;;;;;;;5064528;28;20565;-67
2022/03/13 10:39:20;;;;;;;22.23;14.43;;;;;;;;;;5063144;28;20399;-67
2022/03/13 10:41:56;;;;;;;19.70;14.20;;;;;;;;;;5064686;28;20530;-67
2022/03/13 10:44:25;;;;;;;46.95;22.80;;;;;;;;;;5064512;28;20221;-67
2022/03/13 10:46:53;;;;;;;32.05;19.35;;;;;;;;;;5064058;28;20268;-67
2022/03/13 10:49:31;;;;;;;25.40;15.77;;;;;;;;;;5064293;28;20512;-67
2022/03/13 10:51:57;;;;;;;19.90;14.30;;;;;;;;;;5063916;28;20200;-67
2022/03/13 10:54:28;;;;;;;25.08;15.98;;;;;;;;;;5064094;28;20232;-68
2022/03/13 10:57:05;;;;;;;28.77;16.83;;;;;;;;;;5063690;28;20196;-68
2022/03/13 10:59:32;;;;;;;23.83;16.50;;;;;;;;;;5063873;28;20204;-68
2022/03/13 11:02:10;;;;;;;44.65;22.48;;;;;;;;;;5063615;28;20423;-68
2022/03/13 11:04:36;;;;;;;23.98;16.05;;;;;;;;;;5064051;28;20224;-68
2022/03/13 11:07:03;;;;;;;23.00;15.57;;;;;;;;;;5063527;28;20223;-68
2022/03/13 11:09:29;;;;;;;21.38;15.43;;;;;;;;;;5063729;28;20220;-68
2022/03/13 11:12:06;;;;;;;24.67;17.10;;;;;;;;;;5064046;28;20497;-68
2022/03/13 11:14:34;;;;;;;22.33;16.35;;;;;;;;;;5064109;28;20200;-68
2022/03/13 11:17:02;;;;;;;26.05;18.17;;;;;;;;;;5063444;28;20243;-68
2022/03/13 11:19:29;;;;;;;24.63;16.42;;;;;;;;;;5063387;28;20197;-68
2022/03/13 11:21:55;;;;;;;25.80;16.67;;;;;;;;;;5063541;28;20205;-68
2022/03/13 11:24:23;;;;;;;22.17;16.63;;;;;;;;;;5063458;28;20263;-68
2022/03/13 11:26:49;;;;;;;21.83;15.73;;;;;;;;;;5063191;28;20197;-68
2022/03/13 11:29:15;;;;;;;22.33;16.38;;;;;;;;;;5063202;28;20212;-68
2022/03/13 11:31:43;;;;;;;21.33;15.13;;;;;;;;;;5063272;28;20217;-68
2022/03/13 11:34:12;;;;;;;26.23;17.60;;;;;;;;;;5063183;28;20201;-67
2022/03/13 11:36:40;;;;;;;26.73;17.77;;;;;;;;;;5063033;28;20397;-68
2022/03/13 11:39:07;;;;;;;22.17;16.58;;;;;;;;;;5062960;28;20205;-68
2022/03/13 11:41:35;;;;;;;20.90;16.17;;;;;;;;;;5062885;28;20205;-68
2022/03/13 11:44:03;;;;;;;22.30;16.98;;;;;;;;;;5062938;28;20271;-68
2022/03/13 11:46:38;;;;;;;24.17;16.63;;;;;;;;;;5062864;28;20197;-68
2022/03/13 11:49:16;;;;;;;21.42;15.90;;;;;;;;;;5062933;28;20226;-68
2022/03/13 11:51:44;;;;;;;22.55;16.02;;;;;;;;;;5062433;28;20202;-68
2022/03/13 11:54:15;;;;;;;22.33;16.27;;;;;;;;;;5062695;28;20438;-68
2022/03/13 11:56:46;;;;;;;22.85;16.75;;;;;;;;;;5062457;28;20207;-68
2022/03/13 11:59:14;;;;;;;23.13;16.63;;;;;;;;;;5062807;28;20203;-68
2022/03/13 12:01:41;;;;;;;26.80;18.08;;;;;;;;;;5062665;28;20197;-68
2022/03/13 12:04:25;;;;;;;29.00;17.42;;;;;;;;;;5062489;28;20280;-68
2022/03/13 12:06:55;;;;;;;24.10;16.73;;;;;;;;;;5062447;28;20217;-68
2022/03/13 12:09:26;;;;;;;22.98;16.50;;;;;;;;;;5062535;28;20224;-68
2022/03/13 12:11:59;;;;;;;23.55;15.75;;;;;;;;;;5062606;28;20203;-68
2022/03/13 12:14:49;;;;;;;25.83;16.55;;;;;;;;;;5062480;28;20193;-68
2022/03/13 12:17:15;;;;;;;21.73;16.75;;;;;;;;;;5062140;28;20232;-68
2022/03/13 12:19:44;;;;;;;24.15;16.83;;;;;;;;;;5062336;28;20204;-68
2022/03/13 12:22:11;;;;;;;25.40;16.73;;;;;;;;;;5062317;28;20527;-68
2022/03/13 12:24:38;;;;;;;23.65;17.00;;;;;;;;;;5062063;28;20270;-68
2022/03/13 12:27:05;;;;;;;23.98;18.10;;;;;;;;;;5061995;28;20189;-68
2022/03/13 12:29:32;;;;;;;24.45;17.27;;;;;;;;;;5062543;28;20201;-68
2022/03/13 12:32:00;;;;;;;23.40;16.67;;;;;;;;;;5062721;28;20216;-68
2022/03/13 12:34:27;;;;;;;23.52;16.33;;;;;;;;;;5062330;28;20193;-68
2022/03/13 12:36:57;;;;;;;22.42;16.23;;;;;;;;;;5062324;28;20489;-68
2022/03/13 12:39:23;;;;;;;22.65;16.48;;;;;;;;;;5062186;28;20201;-68
2022/03/13 12:41:55;;;;;;;23.88;17.35;;;;;;;;;;5062395;28;20619;-68
2022/03/13 12:44:22;;;;;;;24.05;17.35;;;;;;;;;;5062163;28;20229;-68
2022/03/13 12:46:51;;;;;;;22.67;17.50;;;;;;;;;;5062044;28;20197;-68
2022/03/13 12:49:19;;;;;;;26.67;18.35;;;;;;;;;;5062332;28;20197;-68
2022/03/13 12:51:46;;;;;;;24.25;17.33;;;;;;;;;;5062204;28;20223;-68
2022/03/13 12:54:15;;;;;;;28.23;17.15;;;;;;;;;;5062111;28;20193;-68
2022/03/13 12:56:45;;;;;;;27.02;18.80;;;;;;;;;;5061848;28;20212;-68
2022/03/13 12:59:22;;;;;;;23.67;18.15;;;;;;;;;;5062239;28;20197;-68
2022/03/13 13:02:01;;;;;;;25.67;18.05;;;;;;;;;;5061889;28;20203;-68
2022/03/13 13:04:27;;;;;;;24.08;17.55;;;;;;;;;;5062050;28;20217;-68
2022/03/13 13:06:53;;;;;;;23.67;17.63;;;;;;;;;;5061671;28;20217;-68
2022/03/13 13:09:28;;;;;;;23.85;17.00;;;;;;;;;;5061777;28;20209;-68
2022/03/13 13:11:54;;;;;;;24.98;18.23;;;;;;;;;;5062248;28;20496;-68
2022/03/13 13:14:23;;;;;;;26.50;17.85;;;;;;;;;;5062053;28;20392;-68
2022/03/13 13:16:49;;;;;;;24.33;17.13;;;;;;;;;;5061721;28;20201;-68
2022/03/13 13:19:15;;;;;;;22.88;17.20;;;;;;;;;;5061897;28;20531;-68
2022/03/13 13:21:42;;;;;;;24.17;17.77;;;;;;;;;;5061844;28;20201;-68
2022/03/13 13:24:22;;;;;;;21.23;16.35;;;;;;;;;;5061768;28;20263;-68
2022/03/13 13:26:49;;;;;;;27.17;17.85;;;;;;;;;;5061566;28;20197;-68
2022/03/13 13:29:29;;;;;;;26.73;17.88;;;;;;;;;;5061761;28;20197;-68
2022/03/13 13:32:16;;;;;;;24.55;18.00;;;;;;;;;;5061654;28;20267;-68
2022/03/13 13:34:44;;;;;;;22.17;16.42;;;;;;;;;;5061700;28;20193;-68
2022/03/13 13:37:10;;;;;;;26.63;17.40;;;;;;;;;;5061546;28;20197;-68
2022/03/13 13:39:36;;;;;;;30.77;20.58;;;;;;;;;;5061778;28;20243;-68
2022/03/13 13:42:04;;;;;;;23.73;17.85;;;;;;;;;;5061625;28;20201;-68
2022/03/13 13:44:30;;;;;;;27.90;17.73;;;;;;;;;;5061435;28;20213;-68
2022/03/13 13:47:04;;;;;;;23.52;17.67;;;;;;;;;;5061704;28;20202;-68
2022/03/13 13:49:30;;;;;;;23.50;17.23;;;;;;;;;;5061802;28;20205;-68
2022/03/13 13:52:09;;;;;;;21.02;16.00;;;;;;;;;;5061642;28;20232;-68
2022/03/13 13:54:36;;;;;;;21.70;15.25;;;;;;;;;;5061602;28;20193;-68
2022/03/13 13:57:04;;;;;;;22.77;16.45;;;;;;;;;;5061279;28;20209;-68
2022/03/13 13:59:31;;;;;;;20.15;15.52;;;;;;;;;;5061623;28;20197;-68
2022/03/13 14:02:13;;;;;;;26.13;16.63;;;;;;;;;;5061660;28;20201;-68
2022/03/13 14:04:40;;;;;;;19.92;15.68;;;;;;;;;;5061456;28;20708;-68
2022/03/13 14:07:08;;;;;;;27.52;17.35;;;;;;;;;;5061240;28;20204;-68
2022/03/13 14:09:35;;;;;;;21.92;16.48;;;;;;;;;;5061374;28;20225;-68
2022/03/13 14:12:01;;;;;;;22.52;17.02;;;;;;;;;;5061328;28;20200;-68
2022/03/13 14:14:29;;;;;;;24.48;17.80;;;;;;;;;;5063356;28;20193;-68
2022/03/13 14:16:56;;;;;;;21.85;16.02;;;;;;;;;;5064875;28;20204;-68
2022/03/13 14:19:23;;;;;;;26.00;17.15;;;;;;;;;;5064957;28;20403;-68